createdAt,value
2023-05-14T00:00:34.380Z,28.99
2023-05-14T00:01:34.380Z,28.20
2023-05-14T00:02:34.465Z,28.51
2023-05-14T00:03:33.454Z,27.09
2023-05-14T00:04:33.555Z,31.38
2023-05-14T00:05:33.451Z,33.00
2023-05-14T00:06:34.414Z,32.87
2023-05-14T00:07:33.408Z,31.86
2023-05-14T00:08:34.442Z,33.15
2023-05-14T00:09:34.449Z,27.59
2023-05-14T00:10:34.464Z,33.30
2023-05-14T00:11:33.537Z,34.26
2023-05-14T00:12:33.477Z,30.68
2023-05-14T00:13:34.487Z,34.84
2023-05-14T00:14:34.500Z,29.39
2023-05-14T00:15:34.726Z,28.21
2023-05-14T00:16:34.574Z,28.05
2023-05-14T00:17:33.580Z,29.52
2023-05-14T00:18:33.575Z,30.30
2023-05-14T00:19:34.661Z,30.36
2023-05-14T00:20:33.561Z,27.53
2023-05-14T00:21:33.560Z,31.89
2023-05-14T00:22:33.561Z,33.04
2023-05-14T00:23:34.615Z,29.46
2023-05-14T00:24:33.606Z,26.82
2023-05-14T00:25:33.622Z,29.38
2023-05-14T00:26:34.608Z,30.00
2023-05-14T00:27:33.631Z,29.55
2023-05-14T00:28:33.635Z,32.89
2023-05-14T00:29:33.664Z,31.48
2023-05-14T00:30:34.642Z,28.55
2023-05-14T00:31:34.693Z,27.37
2023-05-14T00:32:34.713Z,34.16
2023-05-14T00:33:34.703Z,32.50
2023-05-14T00:34:34.705Z,28.83
2023-05-14T00:35:33.717Z,28.71
2023-05-14T00:36:33.730Z,25.88
2023-05-14T00:37:33.721Z,32.99
2023-05-14T00:38:33.733Z,30.42
2023-05-14T00:39:33.737Z,30.63
2023-05-14T00:40:34.769Z,32.40
2023-05-14T00:41:34.768Z,26.52
2023-05-14T00:42:34.779Z,33.07
2023-05-14T00:43:33.770Z,28.53
2023-05-14T00:44:34.802Z,29.33
2023-05-14T00:45:35.154Z,31.31
2023-05-14T00:46:33.886Z,27.83
2023-05-14T00:47:34.878Z,27.22
2023-05-14T00:48:34.845Z,26.89
2023-05-14T00:49:33.845Z,30.14
2023-05-14T00:50:34.833Z,32.26
2023-05-14T00:51:34.838Z,30.55
2023-05-14T00:52:34.865Z,30.31
2023-05-14T00:53:33.906Z,29.21
2023-05-14T00:54:33.873Z,30.49
2023-05-14T00:55:34.892Z,30.93
2023-05-14T00:56:35.062Z,30.04
2023-05-14T00:57:34.908Z,35.20
2023-05-14T00:58:34.939Z,28.29
2023-05-14T00:59:34.964Z,28.46
2023-05-14T01:00:34.956Z,29.95
2023-05-14T01:01:33.999Z,30.68
2023-05-14T01:02:35.035Z,31.97
2023-05-14T01:03:35.075Z,28.00
2023-05-14T01:04:34.042Z,28.89
2023-05-14T01:05:35.038Z,31.95
2023-05-14T01:06:35.035Z,29.95
2023-05-14T01:07:35.123Z,33.39
2023-05-14T01:08:35.073Z,27.94
2023-05-14T01:09:35.055Z,26.73
2023-05-14T01:10:35.068Z,31.69
2023-05-14T01:11:34.073Z,30.66
2023-05-14T01:12:35.084Z,31.42
2023-05-14T01:13:35.152Z,33.45
2023-05-14T01:14:35.126Z,29.31
2023-05-14T01:15:34.121Z,32.64
2023-05-14T01:16:34.190Z,30.90
2023-05-14T01:17:34.172Z,30.08
2023-05-14T01:18:35.255Z,28.04
2023-05-14T01:19:35.165Z,29.07
2023-05-14T01:20:34.226Z,26.60
2023-05-14T01:21:35.168Z,31.00
2023-05-14T01:22:34.176Z,31.45
2023-05-14T01:23:34.187Z,28.68
2023-05-14T01:24:34.369Z,27.38
2023-05-14T01:25:34.232Z,27.07
2023-05-14T01:26:34.214Z,32.46
2023-05-14T01:27:34.246Z,33.08
2023-05-14T01:28:34.239Z,32.50
2023-05-14T01:29:35.288Z,28.77
2023-05-14T01:30:34.314Z,28.94
2023-05-14T01:31:35.388Z,30.40
2023-05-14T01:32:34.351Z,30.06
2023-05-14T01:33:34.300Z,30.14
2023-05-14T01:34:34.314Z,27.00
2023-05-14T01:35:35.308Z,30.90
2023-05-14T01:36:35.413Z,25.18
2023-05-14T01:37:35.315Z,31.99
2023-05-14T01:38:35.332Z,29.23
2023-05-14T01:39:34.339Z,31.07
2023-05-14T01:40:34.361Z,30.68
2023-05-14T01:41:35.372Z,28.01
2023-05-14T01:42:35.380Z,29.53
2023-05-14T01:43:34.464Z,30.42
2023-05-14T01:44:35.387Z,28.06
2023-05-14T01:45:35.431Z,28.88
2023-05-14T01:46:35.477Z,30.31
2023-05-14T01:47:34.462Z,27.82
2023-05-14T01:48:34.431Z,31.62
2023-05-14T01:49:35.439Z,27.67
2023-05-14T01:50:35.469Z,25.39
2023-05-14T01:51:34.454Z,31.65
2023-05-14T01:52:35.521Z,30.96
2023-05-14T01:53:35.596Z,30.42
2023-05-14T01:54:35.503Z,31.85
2023-05-14T01:55:34.527Z,28.19
2023-05-14T01:56:34.534Z,29.45
2023-05-14T01:57:35.547Z,31.52
2023-05-14T01:58:34.558Z,30.88
2023-05-14T01:59:35.575Z,26.79
2023-05-14T02:00:35.588Z,27.19
2023-05-14T02:01:35.627Z,28.09
2023-05-14T02:02:34.673Z,31.02
2023-05-14T02:03:35.656Z,32.42
2023-05-14T02:04:35.658Z,28.25
2023-05-14T02:05:35.666Z,30.18
2023-05-14T02:06:35.688Z,30.46
2023-05-14T02:07:34.694Z,34.01
2023-05-14T02:08:34.729Z,32.99
2023-05-14T02:09:34.739Z,31.85
2023-05-14T02:10:35.731Z,28.60
2023-05-14T02:11:35.768Z,33.44
2023-05-14T02:12:34.771Z,31.17
2023-05-14T02:13:35.781Z,31.69
2023-05-14T02:14:35.800Z,28.53
2023-05-14T02:15:34.852Z,30.13
2023-05-14T02:16:35.810Z,33.23
2023-05-14T02:17:35.849Z,30.06
2023-05-14T02:18:34.867Z,30.79
2023-05-14T02:19:34.856Z,33.21
2023-05-14T02:20:35.061Z,29.76
2023-05-14T02:21:35.876Z,33.15
2023-05-14T02:22:35.883Z,33.57
2023-05-14T02:23:41.507Z,29.36
2023-05-14T02:24:35.924Z,29.71
2023-05-14T02:25:34.885Z,30.73
2023-05-14T02:26:35.892Z,31.92
2023-05-14T02:27:35.891Z,30.59
2023-05-14T02:28:34.863Z,34.14
2023-05-14T02:29:35.028Z,34.93
2023-05-14T02:30:34.866Z,34.76
2023-05-14T02:31:34.920Z,30.90
2023-05-14T02:32:34.953Z,33.46
2023-05-14T02:33:35.978Z,31.13
2023-05-14T02:34:35.819Z,32.21
2023-05-14T02:35:35.826Z,31.55
2023-05-14T02:36:34.832Z,33.72
2023-05-14T02:37:34.848Z,26.52
2023-05-14T02:38:35.797Z,33.22
2023-05-14T02:39:35.798Z,27.01
2023-05-14T02:40:35.792Z,29.95
2023-05-14T02:41:34.786Z,31.69
2023-05-14T02:42:34.769Z,31.50
2023-05-14T02:43:35.789Z,30.52
2023-05-14T02:44:35.744Z,32.01
2023-05-14T02:45:34.748Z,29.75
2023-05-14T02:46:35.801Z,28.40
2023-05-14T02:47:37.964Z,31.29
2023-05-14T02:48:34.721Z,31.30
2023-05-14T02:49:35.711Z,30.61
2023-05-14T02:50:35.727Z,32.44
2023-05-14T02:51:35.743Z,31.46
2023-05-14T02:52:34.755Z,32.76
2023-05-14T02:53:34.709Z,28.67
2023-05-14T02:54:35.690Z,31.11
2023-05-14T02:55:34.669Z,29.85
2023-05-14T02:56:34.712Z,28.49
2023-05-14T02:57:34.665Z,28.15
2023-05-14T02:58:35.656Z,29.22
2023-05-14T02:59:35.647Z,32.14
2023-05-14T03:00:35.677Z,34.24
2023-05-14T03:01:35.640Z,33.49
2023-05-14T03:02:35.733Z,30.18
2023-05-14T03:03:34.628Z,30.86
2023-05-14T03:04:35.626Z,28.68
2023-05-14T03:05:35.610Z,29.11
2023-05-14T03:06:34.646Z,31.04
2023-05-14T03:07:35.620Z,31.81
2023-05-14T03:08:34.579Z,28.11
2023-05-14T03:09:37.967Z,29.12
2023-05-14T03:10:35.600Z,29.45
2023-05-14T03:11:34.575Z,29.88
2023-05-14T03:12:34.591Z,30.66
2023-05-14T03:13:35.551Z,32.10
2023-05-14T03:14:34.555Z,30.00
2023-05-14T03:15:34.567Z,31.48
2023-05-14T03:16:35.590Z,32.21
2023-05-14T03:17:34.576Z,27.47
2023-05-14T03:18:34.540Z,29.21
2023-05-14T03:19:35.525Z,26.85
2023-05-14T03:20:34.491Z,26.11
2023-05-14T03:21:35.518Z,28.77
2023-05-14T03:22:35.522Z,32.57
2023-05-14T03:23:34.504Z,26.16
2023-05-14T03:24:35.482Z,30.94
2023-05-14T03:25:35.474Z,27.73
2023-05-14T03:26:35.471Z,31.20
2023-05-14T03:27:35.746Z,27.51
2023-05-14T03:28:34.480Z,30.39
2023-05-14T03:29:35.460Z,30.66
2023-05-14T03:30:35.503Z,30.42
2023-05-14T03:31:34.451Z,31.92
2023-05-14T03:32:34.455Z,32.27
2023-05-14T03:33:34.414Z,29.54
2023-05-14T03:34:34.425Z,28.74
2023-05-14T03:35:34.426Z,33.90
2023-05-14T03:36:35.423Z,31.24
2023-05-14T03:37:35.406Z,30.83
2023-05-14T03:38:34.368Z,31.04
2023-05-14T03:39:35.368Z,31.66
2023-05-14T03:40:35.377Z,31.53
2023-05-14T03:41:34.370Z,32.14
2023-05-14T03:42:35.374Z,32.21
2023-05-14T03:43:35.358Z,29.86
2023-05-14T03:44:34.364Z,30.14
2023-05-14T03:45:35.326Z,31.47
2023-05-14T03:46:35.352Z,32.46
2023-05-14T03:47:35.345Z,30.55
2023-05-14T03:48:34.327Z,30.19
2023-05-14T03:49:34.303Z,31.22
2023-05-14T03:50:34.330Z,28.98
2023-05-14T03:51:35.289Z,28.70
2023-05-14T03:52:34.291Z,31.81
2023-05-14T03:53:35.270Z,30.11
2023-05-14T03:54:35.263Z,30.21
2023-05-14T03:55:35.278Z,31.03
2023-05-14T03:56:34.255Z,34.43
2023-05-14T03:57:34.247Z,29.80
2023-05-14T03:58:34.238Z,32.48
2023-05-14T03:59:34.251Z,30.29
2023-05-14T04:00:35.253Z,28.31
2023-05-14T04:01:35.211Z,29.72
2023-05-14T04:02:34.392Z,27.45
2023-05-14T04:03:35.377Z,25.00
2023-05-14T04:04:35.323Z,33.81
2023-05-14T04:05:34.303Z,27.35
2023-05-14T04:06:34.315Z,28.45
2023-05-14T04:07:34.336Z,31.51
2023-05-14T04:08:35.357Z,30.95
2023-05-14T04:09:34.386Z,30.08
2023-05-14T04:10:35.396Z,29.74
2023-05-14T04:11:34.446Z,31.49
2023-05-14T04:12:35.480Z,33.18
2023-05-14T04:13:35.488Z,31.85
2023-05-14T04:14:35.499Z,28.50
2023-05-14T04:15:34.641Z,28.68
2023-05-14T04:16:34.626Z,29.91
2023-05-14T04:17:35.669Z,29.64
2023-05-14T04:18:35.627Z,32.59
2023-05-14T04:19:35.645Z,31.19
2023-05-14T04:20:34.634Z,30.77
2023-05-14T04:21:35.673Z,26.80
2023-05-14T04:22:35.675Z,26.55
2023-05-14T04:23:35.695Z,29.99
2023-05-14T04:24:34.715Z,29.41
2023-05-14T04:25:35.744Z,28.64
2023-05-14T04:26:34.758Z,28.90
2023-05-14T04:27:35.766Z,26.70
2023-05-14T04:28:35.790Z,27.15
2023-05-14T04:29:35.810Z,32.08
2023-05-14T04:30:35.816Z,31.58
2023-05-14T04:31:35.888Z,28.20
2023-05-14T04:32:35.900Z,31.03
2023-05-14T04:33:35.876Z,29.79
2023-05-14T04:34:35.911Z,32.28
2023-05-14T04:35:36.037Z,29.46
2023-05-14T04:36:35.955Z,30.00
2023-05-14T04:37:34.968Z,25.26
2023-05-14T04:38:36.001Z,29.44
2023-05-14T04:39:36.021Z,32.54
2023-05-14T04:40:35.054Z,29.77
2023-05-14T04:41:36.085Z,31.64
2023-05-14T04:42:36.121Z,32.59
2023-05-14T04:43:35.123Z,25.60
2023-05-14T04:44:36.141Z,29.58
2023-05-14T04:45:35.209Z,31.56
2023-05-14T04:46:36.229Z,29.78
2023-05-14T04:47:36.288Z,29.56
2023-05-14T04:48:35.204Z,29.72
2023-05-14T04:49:35.245Z,29.44
2023-05-14T04:50:36.324Z,30.99
2023-05-14T04:51:36.264Z,28.63
2023-05-14T04:52:36.293Z,31.96
2023-05-14T04:53:36.310Z,29.68
2023-05-14T04:54:36.355Z,28.48
2023-05-14T04:55:36.376Z,31.80
2023-05-14T04:56:36.370Z,30.93
2023-05-14T04:57:36.390Z,29.77
2023-05-14T04:58:36.415Z,29.93
2023-05-14T04:59:36.442Z,30.82
2023-05-14T05:00:36.475Z,31.46
2023-05-14T05:01:36.565Z,30.59
2023-05-14T05:02:35.548Z,31.63
2023-05-14T05:03:36.584Z,30.69
2023-05-14T05:04:36.562Z,28.43
2023-05-14T05:05:36.628Z,26.99
2023-05-14T05:06:36.646Z,29.65
2023-05-14T05:07:36.637Z,31.72
2023-05-14T05:08:36.786Z,28.85
2023-05-14T05:09:36.711Z,25.89
2023-05-14T05:10:35.752Z,31.54
2023-05-14T05:11:35.774Z,32.19
2023-05-14T05:12:36.794Z,31.50
2023-05-14T05:13:36.830Z,31.70
2023-05-14T05:14:36.848Z,31.48
2023-05-14T05:15:36.905Z,29.24
2023-05-14T05:16:36.936Z,29.30
2023-05-14T05:17:36.954Z,32.34
2023-05-14T05:18:40.804Z,31.21
2023-05-14T05:19:43.637Z,31.48
2023-05-14T05:20:36.969Z,31.52
2023-05-14T05:21:35.942Z,32.43
2023-05-14T05:22:36.959Z,32.78
2023-05-14T05:23:35.927Z,32.86
2023-05-14T05:24:35.948Z,32.58
2023-05-14T05:25:35.999Z,30.00
2023-05-14T05:26:36.984Z,29.69
2023-05-14T05:27:35.918Z,33.39
2023-05-14T05:28:36.892Z,33.59
2023-05-14T05:29:36.900Z,30.97
2023-05-14T05:30:36.904Z,29.35
2023-05-14T05:31:36.953Z,30.92
2023-05-14T05:32:36.919Z,26.90
2023-05-14T05:33:35.871Z,27.95
2023-05-14T05:34:35.890Z,31.13
2023-05-14T05:35:35.918Z,30.11
2023-05-14T05:36:35.942Z,29.59
2023-05-14T05:37:35.826Z,30.36
2023-05-14T05:38:36.841Z,31.31
2023-05-14T05:39:35.820Z,33.45
2023-05-14T05:40:35.813Z,32.02
2023-05-14T05:41:36.845Z,30.35
2023-05-14T05:42:35.804Z,30.41
2023-05-14T05:43:36.802Z,29.31
2023-05-14T05:44:36.788Z,28.90
2023-05-14T05:45:36.769Z,31.71
2023-05-14T05:46:36.828Z,33.33
2023-05-14T05:47:36.822Z,31.67
2023-05-14T05:48:36.782Z,34.63
2023-05-14T05:49:36.740Z,30.24
2023-05-14T05:50:36.763Z,32.64
2023-05-14T05:51:36.788Z,28.70
2023-05-14T05:52:36.753Z,30.38
2023-05-14T05:53:36.712Z,29.59
2023-05-14T05:54:36.706Z,30.74
2023-05-14T05:55:36.699Z,32.24
2023-05-14T05:56:35.686Z,34.22
2023-05-14T05:57:36.697Z,30.90
2023-05-14T05:58:35.673Z,25.73
2023-05-14T05:59:36.678Z,30.95
2023-05-14T06:00:35.671Z,31.44
2023-05-14T06:01:35.741Z,35.50
2023-05-14T06:02:36.749Z,32.88
2023-05-14T06:03:36.643Z,33.40
2023-05-14T06:04:36.635Z,35.59
2023-05-14T06:05:36.658Z,33.11
2023-05-14T06:06:36.649Z,32.94
2023-05-14T06:07:36.644Z,35.71
2023-05-14T06:08:35.617Z,30.48
2023-05-14T06:09:35.619Z,30.86
2023-05-14T06:10:35.614Z,32.07
2023-05-14T06:11:36.649Z,31.46
2023-05-14T06:12:35.676Z,32.89
2023-05-14T06:13:37.433Z,29.65
2023-05-14T06:14:36.725Z,33.42
2023-05-14T06:15:36.757Z,31.41
2023-05-14T06:16:35.844Z,30.76
2023-05-14T06:17:35.861Z,34.06
2023-05-14T06:18:36.829Z,34.18
2023-05-14T06:19:36.838Z,30.45
2023-05-14T06:20:35.863Z,32.45
2023-05-14T06:21:35.908Z,31.55
2023-05-14T06:22:36.932Z,33.16
2023-05-14T06:23:35.929Z,31.21
2023-05-14T06:24:36.964Z,28.26
2023-05-14T06:25:36.978Z,33.50
2023-05-14T06:26:36.991Z,33.89
2023-05-14T06:27:37.039Z,30.28
2023-05-14T06:28:37.055Z,33.69
2023-05-14T06:29:37.090Z,30.92
2023-05-14T06:30:37.139Z,30.75
2023-05-14T06:31:36.163Z,34.34
2023-05-14T06:32:36.329Z,27.79
2023-05-14T06:33:36.195Z,30.69
2023-05-14T06:34:37.244Z,30.61
2023-05-14T06:35:36.229Z,30.12
2023-05-14T06:36:37.271Z,30.50
2023-05-14T06:37:36.301Z,33.51
2023-05-14T06:38:37.330Z,34.92
2023-05-14T06:39:37.363Z,30.97
2023-05-14T06:40:37.382Z,26.74
2023-05-14T06:41:37.381Z,31.05
2023-05-14T06:42:36.400Z,33.50
2023-05-14T06:43:37.430Z,31.19
2023-05-14T06:44:36.459Z,34.34
2023-05-14T06:45:37.464Z,31.07
2023-05-14T06:46:37.473Z,33.18
2023-05-14T06:47:36.569Z,30.85
2023-05-14T06:48:36.544Z,32.29
2023-05-14T06:49:37.521Z,32.04
2023-05-14T06:50:37.551Z,31.55
2023-05-14T06:51:36.536Z,32.29
2023-05-14T06:52:37.580Z,32.54
2023-05-14T06:53:37.593Z,30.33
2023-05-14T06:54:36.641Z,34.16
2023-05-14T06:55:37.624Z,32.40
2023-05-14T06:56:36.659Z,31.85
2023-05-14T06:57:38.594Z,31.30
2023-05-14T06:58:37.678Z,35.58
2023-05-14T06:59:36.643Z,36.13
2023-05-14T07:00:37.654Z,35.28
2023-05-14T07:01:36.710Z,29.23
2023-05-14T07:02:37.682Z,31.76
2023-05-14T07:03:36.636Z,35.94
2023-05-14T07:04:37.754Z,34.61
2023-05-14T07:05:37.635Z,30.10
2023-05-14T07:06:37.594Z,31.97
2023-05-14T07:07:37.635Z,31.70
2023-05-14T07:08:37.581Z,28.10
2023-05-14T07:09:37.627Z,30.59
2023-05-14T07:10:36.597Z,32.98
2023-05-14T07:11:37.288Z,33.17
2023-05-14T07:12:37.553Z,30.03
2023-05-14T07:13:37.542Z,33.17
2023-05-14T07:14:37.548Z,32.11
2023-05-14T07:15:37.532Z,33.56
2023-05-14T07:16:36.575Z,28.64
2023-05-14T07:17:36.536Z,29.54
2023-05-14T07:18:37.578Z,34.65
2023-05-14T07:19:36.497Z,32.32
2023-05-14T07:20:37.497Z,33.25
2023-05-14T07:21:37.492Z,29.83
2023-05-14T07:22:36.478Z,29.14
2023-05-14T07:23:37.537Z,30.45
2023-05-14T07:24:37.484Z,30.46
2023-05-14T07:25:36.471Z,30.37
2023-05-14T07:26:37.476Z,25.92
2023-05-14T07:27:37.446Z,32.16
2023-05-14T07:28:36.469Z,32.95
2023-05-14T07:29:37.437Z,33.39
2023-05-14T07:30:37.445Z,32.80
2023-05-14T07:31:37.486Z,30.49
2023-05-14T07:32:36.480Z,33.73
2023-05-14T07:33:37.410Z,31.66
2023-05-14T07:34:37.426Z,32.16
2023-05-14T07:35:37.407Z,33.18
2023-05-14T07:36:36.371Z,33.48
2023-05-14T07:37:37.372Z,28.40
2023-05-14T07:38:37.358Z,27.31
2023-05-14T07:39:37.360Z,28.49
2023-05-14T07:40:37.366Z,30.76
2023-05-14T07:41:37.409Z,31.86
2023-05-14T07:42:37.656Z,34.63
2023-05-14T07:43:37.335Z,30.94
2023-05-14T07:44:36.336Z,34.01
2023-05-14T07:45:37.319Z,33.16
2023-05-14T07:46:37.315Z,30.39
2023-05-14T07:47:37.436Z,34.06
2023-05-14T07:48:36.430Z,33.00
2023-05-14T07:49:37.291Z,31.77
2023-05-14T07:50:36.293Z,31.53
2023-05-14T07:51:36.277Z,28.99
2023-05-14T07:52:36.285Z,30.34
2023-05-14T07:53:37.324Z,29.85
2023-05-14T07:54:37.251Z,30.89
2023-05-14T07:55:36.253Z,30.32
2023-05-14T07:56:36.238Z,30.95
2023-05-14T07:57:37.281Z,33.16
2023-05-14T07:58:37.268Z,29.90
2023-05-14T07:59:37.222Z,28.91
2023-05-14T08:00:36.206Z,33.08
2023-05-14T08:01:39.173Z,28.42
2023-05-14T08:02:36.306Z,32.47
2023-05-14T08:03:37.284Z,32.84
2023-05-14T08:04:36.588Z,33.67
2023-05-14T08:05:37.186Z,30.04
2023-05-14T08:06:37.192Z,27.05
2023-05-14T08:07:38.040Z,31.93
2023-05-14T08:08:37.260Z,36.08
2023-05-14T08:09:36.148Z,34.73
2023-05-14T08:10:37.190Z,31.33
2023-05-14T08:11:37.177Z,30.18
2023-05-14T08:12:36.161Z,25.00
2023-05-14T08:13:37.150Z,26.86
2023-05-14T08:14:36.228Z,33.12
2023-05-14T08:15:37.168Z,31.52
2023-05-14T08:16:37.189Z,30.39
2023-05-14T08:17:37.113Z,32.62
2023-05-14T08:18:36.137Z,30.14
2023-05-14T08:19:37.103Z,34.06
2023-05-14T08:20:36.070Z,29.04
2023-05-14T08:21:37.068Z,28.54
2023-05-14T08:22:36.063Z,30.23
2023-05-14T08:23:37.040Z,32.01
2023-05-14T08:24:37.035Z,31.40
2023-05-14T08:25:36.039Z,35.02
2023-05-14T08:26:36.049Z,30.04
2023-05-14T08:27:37.013Z,28.36
2023-05-14T08:28:36.011Z,31.55
2023-05-14T08:29:35.996Z,34.48
2023-05-14T08:30:37.087Z,32.57
2023-05-14T08:31:36.990Z,30.51
2023-05-14T08:32:37.025Z,33.87
2023-05-14T08:33:35.982Z,33.75
2023-05-14T08:34:36.966Z,31.07
2023-05-14T08:35:35.955Z,29.39
2023-05-14T08:36:36.947Z,32.33
2023-05-14T08:37:35.935Z,35.30
2023-05-14T08:38:36.944Z,33.98
2023-05-14T08:39:35.931Z,34.80
2023-05-14T08:40:35.947Z,31.37
2023-05-14T08:41:35.945Z,31.10
2023-05-14T08:42:35.944Z,32.43
2023-05-14T08:43:35.990Z,32.40
2023-05-14T08:44:36.031Z,32.76
2023-05-14T08:45:37.003Z,32.96
2023-05-14T08:46:36.056Z,29.59
2023-05-14T08:47:37.047Z,29.69
2023-05-14T08:48:36.128Z,30.72
2023-05-14T08:49:36.058Z,30.39
2023-05-14T08:50:36.097Z,28.40
2023-05-14T08:51:37.080Z,31.65
2023-05-14T08:52:37.107Z,30.34
2023-05-14T08:53:37.106Z,30.42
2023-05-14T08:54:37.107Z,29.23
2023-05-14T08:55:36.123Z,30.46
2023-05-14T08:56:36.151Z,27.04
2023-05-14T08:57:37.158Z,30.35
2023-05-14T08:58:37.176Z,27.67
2023-05-14T08:59:37.183Z,30.81
2023-05-14T09:00:37.189Z,25.27
2023-05-14T09:01:36.212Z,32.59
2023-05-14T09:02:37.269Z,31.67
2023-05-14T09:03:37.279Z,27.37
2023-05-14T09:04:36.261Z,30.00
2023-05-14T09:05:37.262Z,26.57
2023-05-14T09:06:36.242Z,28.78
2023-05-14T09:07:37.271Z,30.89
2023-05-14T09:08:37.287Z,28.13
2023-05-14T09:09:36.299Z,27.23
2023-05-14T09:10:37.306Z,27.05
2023-05-14T09:11:37.331Z,26.92
2023-05-14T09:12:37.759Z,26.66
2023-05-14T09:13:37.332Z,30.38
2023-05-14T09:14:36.359Z,30.33
2023-05-14T09:15:37.368Z,29.03
2023-05-14T09:16:36.392Z,29.29
2023-05-14T09:17:37.399Z,28.86
2023-05-14T09:18:37.445Z,26.66
2023-05-14T09:19:37.412Z,25.46
2023-05-14T09:20:36.414Z,25.10
2023-05-14T09:21:36.417Z,25.91
2023-05-14T09:22:36.442Z,27.14
2023-05-14T09:23:36.431Z,29.62
2023-05-14T09:24:37.449Z,27.87
2023-05-14T09:25:37.474Z,28.24
2023-05-14T09:26:36.444Z,28.38
2023-05-14T09:27:37.473Z,30.08
2023-05-14T09:28:36.478Z,28.27
2023-05-14T09:29:36.448Z,31.53
2023-05-14T09:30:37.474Z,32.53
2023-05-14T09:31:37.515Z,28.85
2023-05-14T09:32:36.534Z,30.56
2023-05-14T09:33:36.514Z,28.68
2023-05-14T09:34:36.494Z,26.24
2023-05-14T09:35:37.487Z,28.21
2023-05-14T09:36:36.485Z,28.53
2023-05-14T09:37:37.508Z,27.05
2023-05-14T09:38:37.518Z,27.89
2023-05-14T09:39:36.514Z,31.76
2023-05-14T09:40:36.530Z,31.77
2023-05-14T09:41:37.516Z,26.90
2023-05-14T09:42:37.514Z,29.37
2023-05-14T09:43:37.519Z,30.17
2023-05-14T09:44:36.528Z,35.68
2023-05-14T09:45:36.511Z,32.20
2023-05-14T09:46:36.537Z,28.80
2023-05-14T09:47:37.624Z,28.51
2023-05-14T09:48:36.552Z,33.20
2023-05-14T09:49:36.528Z,29.33
2023-05-14T09:50:37.552Z,28.95
2023-05-14T09:51:37.525Z,28.24
2023-05-14T09:52:36.539Z,29.66
2023-05-14T09:53:36.545Z,30.52
2023-05-14T09:54:37.575Z,27.73
2023-05-14T09:55:37.566Z,25.75
2023-05-14T09:56:37.564Z,27.88
2023-05-14T09:57:37.559Z,25.00
2023-05-14T09:58:36.573Z,31.45
2023-05-14T09:59:37.687Z,30.57
2023-05-14T10:00:37.581Z,28.50
2023-05-14T10:01:37.756Z,29.63
2023-05-14T10:02:37.831Z,28.60
2023-05-14T10:03:36.584Z,27.25
2023-05-14T10:04:37.724Z,28.64
2023-05-14T10:05:37.594Z,27.77
2023-05-14T10:06:36.617Z,27.28
2023-05-14T10:07:37.620Z,28.58
2023-05-14T10:08:36.617Z,34.50
2023-05-14T10:09:37.623Z,29.32
2023-05-14T10:10:36.617Z,28.02
2023-05-14T10:11:36.644Z,29.98
2023-05-14T10:12:36.638Z,28.67
2023-05-14T10:13:36.656Z,29.61
2023-05-14T10:14:37.642Z,29.85
2023-05-14T10:15:36.647Z,29.76
2023-05-14T10:16:37.710Z,30.28
2023-05-14T10:17:36.658Z,33.14
2023-05-14T10:18:37.694Z,31.87
2023-05-14T10:19:36.652Z,28.93
2023-05-14T10:20:37.664Z,28.72
2023-05-14T10:21:37.640Z,31.10
2023-05-14T10:22:37.668Z,35.47
2023-05-14T10:23:36.635Z,36.08
2023-05-14T10:24:36.659Z,30.26
2023-05-14T10:25:37.638Z,32.25
2023-05-14T10:26:36.623Z,34.28
2023-05-14T10:27:37.672Z,31.15
2023-05-14T10:28:37.664Z,32.31
2023-05-14T10:29:36.648Z,34.31
2023-05-14T10:30:37.641Z,30.73
2023-05-14T10:31:37.823Z,31.61
2023-05-14T10:32:37.755Z,33.09
2023-05-14T10:33:37.669Z,32.78
2023-05-14T10:34:36.651Z,32.91
2023-05-14T10:35:36.656Z,34.52
2023-05-14T10:36:37.656Z,34.68
2023-05-14T10:37:37.658Z,36.26
2023-05-14T10:38:37.677Z,37.95
2023-05-14T10:39:37.650Z,35.96
2023-05-14T10:40:37.642Z,35.20
2023-05-14T10:41:36.653Z,36.59
2023-05-14T10:42:37.673Z,36.23
2023-05-14T10:43:37.665Z,37.64
2023-05-14T10:44:36.649Z,40.24
2023-05-14T10:45:36.618Z,36.91
2023-05-14T10:46:36.667Z,39.41
2023-05-14T10:47:36.638Z,43.20
2023-05-14T10:48:36.657Z,39.36
2023-05-14T10:49:43.415Z,38.68
2023-05-14T10:50:37.617Z,39.14
2023-05-14T10:51:37.944Z,40.01
2023-05-14T10:52:36.606Z,41.51
2023-05-14T10:53:37.627Z,42.79
2023-05-14T10:54:37.614Z,43.74
2023-05-14T10:55:37.587Z,43.44
2023-05-14T10:56:36.590Z,43.72
2023-05-14T10:57:37.571Z,45.39
2023-05-14T10:58:36.562Z,44.46
2023-05-14T10:59:36.583Z,40.92
2023-05-14T11:00:37.654Z,45.24
2023-05-14T11:01:37.565Z,41.81
2023-05-14T11:02:36.617Z,40.80
2023-05-14T11:03:37.582Z,41.82
2023-05-14T11:04:36.542Z,40.28
2023-05-14T11:05:37.514Z,41.93
2023-05-14T11:06:37.507Z,39.79
2023-05-14T11:07:36.515Z,40.10
2023-05-14T11:08:37.519Z,39.75
2023-05-14T11:09:37.507Z,41.93
2023-05-14T11:10:36.524Z,39.64
2023-05-14T11:11:36.530Z,40.11
2023-05-14T11:12:37.484Z,41.92
2023-05-14T11:13:36.469Z,41.67
2023-05-14T11:14:37.484Z,40.83
2023-05-14T11:15:36.464Z,40.68
2023-05-14T11:16:37.521Z,40.55
2023-05-14T11:17:37.600Z,41.33
2023-05-14T11:18:37.460Z,42.30
2023-05-14T11:19:37.432Z,41.26
2023-05-14T11:20:36.407Z,42.68
2023-05-14T11:21:36.473Z,41.09
2023-05-14T11:22:37.451Z,45.30
2023-05-14T11:23:36.503Z,40.41
2023-05-14T11:24:36.543Z,39.59
2023-05-14T11:25:37.572Z,42.63
2023-05-14T11:26:37.730Z,43.00
2023-05-14T11:27:36.608Z,41.23
2023-05-14T11:28:37.616Z,40.08
2023-05-14T11:29:37.672Z,42.64
2023-05-14T11:30:36.673Z,41.57
2023-05-14T11:31:36.731Z,41.66
2023-05-14T11:32:36.778Z,43.92
2023-05-14T11:33:36.850Z,44.18
2023-05-14T11:34:36.801Z,44.10
2023-05-14T11:35:37.813Z,45.45
2023-05-14T11:36:36.828Z,42.09
2023-05-14T11:37:36.869Z,43.09
2023-05-14T11:38:36.846Z,42.63
2023-05-14T11:39:37.869Z,44.43
2023-05-14T11:40:36.921Z,42.64
2023-05-14T11:41:37.913Z,43.36
2023-05-14T11:42:36.964Z,42.94
2023-05-14T11:43:36.975Z,45.31
2023-05-14T11:44:38.023Z,41.55
2023-05-14T11:45:38.093Z,43.45
2023-05-14T11:46:38.150Z,43.09
2023-05-14T11:47:37.222Z,45.42
2023-05-14T11:48:38.170Z,42.95
2023-05-14T11:49:38.211Z,42.24
2023-05-14T11:50:37.228Z,48.11
2023-05-14T11:51:38.245Z,47.49
2023-05-14T11:52:38.280Z,38.77
2023-05-14T11:53:37.328Z,46.05
2023-05-14T11:54:37.320Z,43.17
2023-05-14T11:55:38.348Z,41.21
2023-05-14T11:56:37.379Z,42.49
2023-05-14T11:57:37.425Z,41.08
2023-05-14T11:58:37.495Z,40.29
2023-05-14T11:59:38.508Z,47.95
2023-05-14T12:00:37.561Z,42.70
2023-05-14T12:01:37.591Z,42.53
2023-05-14T12:02:38.744Z,39.52
2023-05-14T12:03:38.872Z,40.89
2023-05-14T12:04:38.814Z,42.09
2023-05-14T12:05:38.824Z,42.04
2023-05-14T12:06:37.900Z,38.95
2023-05-14T12:07:37.934Z,41.67
2023-05-14T12:08:38.987Z,44.27
2023-05-14T12:09:39.103Z,40.99
2023-05-14T12:10:38.124Z,40.03
2023-05-14T12:11:38.179Z,38.15
2023-05-14T12:12:39.294Z,43.56
2023-05-14T12:13:39.281Z,40.05
2023-05-14T12:14:39.291Z,40.07
2023-05-14T12:15:39.372Z,41.75
2023-05-14T12:16:38.573Z,45.90
2023-05-14T12:17:39.498Z,40.20
2023-05-14T12:18:38.579Z,37.51
2023-05-14T12:19:38.508Z,39.07
2023-05-14T12:20:39.535Z,36.77
2023-05-14T12:21:39.550Z,39.80
2023-05-14T12:22:39.581Z,40.54
2023-05-14T12:23:38.640Z,41.01
2023-05-14T12:24:39.693Z,38.71
2023-05-14T12:25:38.718Z,42.78
2023-05-14T12:26:39.774Z,41.35
2023-05-14T12:27:38.859Z,33.48
2023-05-14T12:28:38.913Z,34.97
2023-05-14T12:29:40.017Z,34.63
2023-05-14T12:30:39.006Z,35.21
2023-05-14T12:31:39.128Z,36.35
2023-05-14T12:32:39.215Z,42.98
2023-05-14T12:33:39.227Z,37.68
2023-05-14T12:34:39.304Z,36.93
2023-05-14T12:35:40.438Z,37.34
2023-05-14T12:36:40.380Z,37.65
2023-05-14T12:37:40.460Z,34.59
2023-05-14T12:38:40.573Z,37.43
2023-05-14T12:39:39.568Z,37.66
2023-05-14T12:40:40.618Z,38.99
2023-05-14T12:41:39.686Z,38.49
2023-05-14T12:42:40.723Z,37.25
2023-05-14T12:43:39.805Z,39.01
2023-05-14T12:44:39.803Z,39.79
2023-05-14T12:45:40.881Z,34.26
2023-05-14T12:46:39.855Z,37.61
2023-05-14T12:47:40.927Z,38.89
2023-05-14T12:48:40.927Z,39.01
2023-05-14T12:49:39.977Z,37.80
2023-05-14T12:50:41.008Z,35.72
2023-05-14T12:51:41.056Z,34.44
2023-05-14T12:52:44.324Z,36.35